sensor_id;sensor_type;location;lat;lon;timestamp;pressure;altitude;pressure_sealevel;temperature;humidity
64827;BME280;51265;53.972;12.286;2023-07-29T00:01:53;99969.97;;;14.61;100.00
64827;BME280;51265;53.972;12.286;2023-07-29T00:04:20;99965.13;;;14.58;100.00
64827;BME280;51265;53.972;12.286;2023-07-29T00:06:46;99963.63;;;14.60;100.00
64827;BME280;51265;53.972;12.286;2023-07-29T00:09:12;99955.22;;;14.69;100.00
64827;BME280;51265;53.972;12.286;2023-07-29T00:11:38;99958.69;;;14.66;100.00
64827;BME280;51265;53.972;12.286;2023-07-29T00:14:05;99956.13;;;14.61;100.00
64827;BME280;51265;53.972;12.286;2023-07-29T00:16:31;99953.59;;;14.56;100.00
64827;BME280;51265;53.972;12.286;2023-07-29T00:19:10;99963.25;;;14.50;100.00
64827;BME280;51265;53.972;12.286;2023-07-29T00:21:36;99964.59;;;14.43;100.00
64827;BME280;51265;53.972;12.286;2023-07-29T00:24:03;99965.94;;;14.37;100.00
64827;BME280;51265;53.972;12.286;2023-07-29T00:26:29;99974.47;;;14.32;100.00
64827;BME280;51265;53.972;12.286;2023-07-29T00:28:56;99966.50;;;14.31;100.00
64827;BME280;51265;53.972;12.286;2023-07-29T00:31:22;99964.75;;;14.26;100.00
64827;BME280;51265;53.972;12.286;2023-07-29T00:33:50;99969.81;;;14.24;100.00
64827;BME280;51265;53.972;12.286;2023-07-29T00:36:18;99962.44;;;14.28;100.00
64827;BME280;51265;53.972;12.286;2023-07-29T00:38:45;99958.38;;;14.47;100.00
64827;BME280;51265;53.972;12.286;2023-07-29T00:41:11;99969.09;;;14.48;100.00
64827;BME280;51265;53.972;12.286;2023-07-29T00:43:41;99972.97;;;14.56;100.00
64827;BME280;51265;53.972;12.286;2023-07-29T00:46:09;99970.66;;;14.58;100.00
64827;BME280;51265;53.972;12.286;2023-07-29T00:48:36;99968.91;;;14.32;100.00
64827;BME280;51265;53.972;12.286;2023-07-29T00:51:03;99971.41;;;14.25;100.00
64827;BME280;51265;53.972;12.286;2023-07-29T00:53:29;99966.09;;;14.20;100.00
64827;BME280;51265;53.972;12.286;2023-07-29T00:55:55;99959.06;;;14.23;100.00
64827;BME280;51265;53.972;12.286;2023-07-29T00:58:21;99959.22;;;14.26;100.00
64827;BME280;51265;53.972;12.286;2023-07-29T01:00:48;99956.91;;;14.28;100.00
64827;BME280;51265;53.972;12.286;2023-07-29T01:03:15;99954.63;;;14.30;100.00
64827;BME280;51265;53.972;12.286;2023-07-29T01:06:05;99953.25;;;14.36;100.00
64827;BME280;51265;53.972;12.286;2023-07-29T01:08:45;99951.91;;;14.42;100.00
64827;BME280;51265;53.972;12.286;2023-07-29T01:11:20;99959.34;;;14.51;100.00
64827;BME280;51265;53.972;12.286;2023-07-29T01:13:58;99952.19;;;14.62;100.00
64827;BME280;51265;53.972;12.286;2023-07-29T01:16:35;99946.44;;;14.67;100.00
64827;BME280;51265;53.972;12.286;2023-07-29T01:19:05;99953.84;;;14.75;100.00
64827;BME280;51265;53.972;12.286;2023-07-29T01:21:35;99946.13;;;14.81;100.00
64827;BME280;51265;53.972;12.286;2023-07-29T01:24:01;99946.25;;;14.84;100.00
64827;BME280;51265;53.972;12.286;2023-07-29T01:26:27;99944.44;;;14.88;100.00
64827;BME280;51265;53.972;12.286;2023-07-29T01:28:56;99947.41;;;14.95;100.00
64827;BME280;51265;53.972;12.286;2023-07-29T01:31:31;99949.16;;;15.00;100.00
64827;BME280;51265;53.972;12.286;2023-07-29T01:34:09;99949.28;;;15.04;100.00
64827;BME280;51265;53.972;12.286;2023-07-29T01:36:41;99942.25;;;15.06;100.00
64827;BME280;51265;53.972;12.286;2023-07-29T01:39:10;99943.16;;;15.10;100.00
64827;BME280;51265;53.972;12.286;2023-07-29T01:41:39;99940.63;;;15.17;100.00
64827;BME280;51265;53.972;12.286;2023-07-29T01:44:08;99935.53;;;15.19;100.00
64827;BME280;51265;53.972;12.286;2023-07-29T01:46:36;99925.25;;;15.20;100.00
64827;BME280;51265;53.972;12.286;2023-07-29T01:49:02;99938.78;;;15.22;100.00
64827;BME280;51265;53.972;12.286;2023-07-29T01:51:30;99935.91;;;15.30;100.00
64827;BME280;51265;53.972;12.286;2023-07-29T01:53:57;99924.88;;;15.34;100.00
64827;BME280;51265;53.972;12.286;2023-07-29T01:56:26;99935.91;;;15.30;100.00
64827;BME280;51265;53.972;12.286;2023-07-29T01:58:54;99932.75;;;15.32;100.00
64827;BME280;51265;53.972;12.286;2023-07-29T02:01:21;99938.06;;;15.37;100.00
64827;BME280;51265;53.972;12.286;2023-07-29T02:03:47;99952.06;;;15.40;100.00
64827;BME280;51265;53.972;12.286;2023-07-29T02:06:21;99931.97;;;15.43;100.00
64827;BME280;51265;53.972;12.286;2023-07-29T02:08:48;99943.50;;;15.45;100.00
64827;BME280;51265;53.972;12.286;2023-07-29T02:11:14;99948.38;;;15.49;100.00
64827;BME280;51265;53.972;12.286;2023-07-29T02:13:40;99942.13;;;15.52;100.00
64827;BME280;51265;53.972;12.286;2023-07-29T02:16:06;99944.19;;;15.55;100.00
64827;BME280;51265;53.972;12.286;2023-07-29T02:18:33;99941.19;;;15.60;100.00
64827;BME280;51265;53.972;12.286;2023-07-29T02:20:59;99941.63;;;15.62;100.00
64827;BME280;51265;53.972;12.286;2023-07-29T02:23:25;99934.47;;;15.61;100.00
64827;BME280;51265;53.972;12.286;2023-07-29T02:25:52;99928.91;;;15.61;100.00
64827;BME280;51265;53.972;12.286;2023-07-29T02:28:18;99924.19;;;15.61;100.00
64827;BME280;51265;53.972;12.286;2023-07-29T02:30:44;99936.09;;;15.62;100.00
64827;BME280;51265;53.972;12.286;2023-07-29T02:33:11;99929.88;;;15.65;100.00
64827;BME280;51265;53.972;12.286;2023-07-29T02:35:37;99929.88;;;15.65;100.00
64827;BME280;51265;53.972;12.286;2023-07-29T02:38:04;99938.19;;;15.65;100.00
64827;BME280;51265;53.972;12.286;2023-07-29T02:40:30;99946.53;;;15.65;100.00
64827;BME280;51265;53.972;12.286;2023-07-29T02:42:56;99947.34;;;15.65;100.00
64827;BME280;51265;53.972;12.286;2023-07-29T02:45:23;99941.91;;;15.69;100.00
64827;BME280;51265;53.972;12.286;2023-07-29T02:47:49;99934.50;;;15.73;100.00
64827;BME280;51265;53.972;12.286;2023-07-29T02:50:15;99936.56;;;15.76;100.00
64827;BME280;51265;53.972;12.286;2023-07-29T02:52:41;99932.84;;;15.84;100.00
64827;BME280;51265;53.972;12.286;2023-07-29T02:55:08;99930.06;;;15.84;100.00
64827;BME280;51265;53.972;12.286;2023-07-29T02:57:34;99933.53;;;15.81;100.00
64827;BME280;51265;53.972;12.286;2023-07-29T03:00:08;99938.41;;;15.84;100.00
64827;BME280;51265;53.972;12.286;2023-07-29T03:02:35;99936.53;;;15.88;100.00
64827;BME280;51265;53.972;12.286;2023-07-29T03:05:01;99931.44;;;15.90;100.00
64827;BME280;51265;53.972;12.286;2023-07-29T03:07:27;99942.53;;;15.90;100.00
64827;BME280;51265;53.972;12.286;2023-07-29T03:09:53;99948.50;;;16.05;100.00
64827;BME280;51265;53.972;12.286;2023-07-29T03:12:20;99935.00;;;15.91;100.00
64827;BME280;51265;53.972;12.286;2023-07-29T03:14:48;99936.88;;;15.87;100.00
64827;BME280;51265;53.972;12.286;2023-07-29T03:17:14;99940.47;;;15.87;100.00
64827;BME280;51265;53.972;12.286;2023-07-29T03:19:40;99939.22;;;15.85;100.00
64827;BME280;51265;53.972;12.286;2023-07-29T03:22:07;99940.34;;;15.84;100.00
64827;BME280;51265;53.972;12.286;2023-07-29T03:24:33;99946.25;;;15.82;100.00
64827;BME280;51265;53.972;12.286;2023-07-29T03:26:59;99954.59;;;15.82;100.00
64827;BME280;51265;53.972;12.286;2023-07-29T03:29:26;99943.97;;;15.84;100.00
64827;BME280;51265;53.972;12.286;2023-07-29T03:31:52;99942.44;;;15.87;100.00
64827;BME280;51265;53.972;12.286;2023-07-29T03:34:18;99938.59;;;15.91;100.00
64827;BME280;51265;53.972;12.286;2023-07-29T03:36:47;99936.72;;;15.96;100.00
64827;BME280;51265;53.972;12.286;2023-07-29T03:39:14;99937.66;;;16.00;100.00
64827;BME280;51265;53.972;12.286;2023-07-29T03:41:40;99932.19;;;16.03;100.00
64827;BME280;51265;53.972;12.286;2023-07-29T03:44:07;99924.69;;;16.04;100.00
64827;BME280;51265;53.972;12.286;2023-07-29T03:46:33;99919.38;;;15.99;100.00
64827;BME280;51265;53.972;12.286;2023-07-29T03:48:59;99914.78;;;15.90;100.00
64827;BME280;51265;53.972;12.286;2023-07-29T03:51:25;99932.84;;;15.84;100.00
64827;BME280;51265;53.972;12.286;2023-07-29T03:53:52;99929.38;;;15.75;100.00
64827;BME280;51265;53.972;12.286;2023-07-29T03:56:18;99935.44;;;15.65;100.00
64827;BME280;51265;53.972;12.286;2023-07-29T03:58:45;99936.78;;;15.59;100.00
64827;BME280;51265;53.972;12.286;2023-07-29T04:01:12;99933.06;;;15.55;100.00
64827;BME280;51265;53.972;12.286;2023-07-29T04:03:39;99925.47;;;15.52;100.00
64827;BME280;51265;53.972;12.286;2023-07-29T04:06:06;99923.84;;;15.51;100.00
64827;BME280;51265;53.972;12.286;2023-07-29T04:08:32;99919.94;;;15.52;100.00
64827;BME280;51265;53.972;12.286;2023-07-29T04:10:58;99916.91;;;15.57;100.00
64827;BME280;51265;53.972;12.286;2023-07-29T04:13:25;99909.03;;;15.59;100.00
64827;BME280;51265;53.972;12.286;2023-07-29T04:15:51;99915.41;;;15.59;100.00
64827;BME280;51265;53.972;12.286;2023-07-29T04:18:17;99919.41;;;15.86;100.00
64827;BME280;51265;53.972;12.286;2023-07-29T04:20:44;99923.81;;;15.75;100.00
64827;BME280;51265;53.972;12.286;2023-07-29T04:23:10;99914.69;;;15.62;100.00
64827;BME280;51265;53.972;12.286;2023-07-29T04:25:37;99911.25;;;15.65;100.00
64827;BME280;51265;53.972;12.286;2023-07-29T04:28:03;99909.25;;;15.78;100.00
64827;BME280;51265;53.972;12.286;2023-07-29T04:30:31;99900.88;;;15.90;100.00
64827;BME280;51265;53.972;12.286;2023-07-29T04:32:57;99888.56;;;16.04;100.00
64827;BME280;51265;53.972;12.286;2023-07-29T04:35:23;99900.16;;;16.06;100.00
64827;BME280;51265;53.972;12.286;2023-07-29T04:37:49;99897.13;;;16.11;100.00
64827;BME280;51265;53.972;12.286;2023-07-29T04:40:15;99895.25;;;16.15;100.00
64827;BME280;51265;53.972;12.286;2023-07-29T04:42:42;99905.28;;;16.19;100.00
64827;BME280;51265;53.972;12.286;2023-07-29T04:45:09;99902.16;;;16.21;100.00
64827;BME280;51265;53.972;12.286;2023-07-29T04:47:35;99904.97;;;16.37;100.00
64827;BME280;51265;53.972;12.286;2023-07-29T04:50:01;99909.59;;;16.61;100.00
64827;BME280;51265;53.972;12.286;2023-07-29T04:52:27;99912.47;;;16.64;100.00
64827;BME280;51265;53.972;12.286;2023-07-29T04:54:54;99912.69;;;16.87;100.00
64827;BME280;51265;53.972;12.286;2023-07-29T04:57:20;99911.53;;;17.20;100.00
64827;BME280;51265;53.972;12.286;2023-07-29T04:59:46;99911.25;;;17.25;100.00
64827;BME280;51265;53.972;12.286;2023-07-29T05:02:12;99905.66;;;17.25;100.00
64827;BME280;51265;53.972;12.286;2023-07-29T05:04:38;99900.47;;;17.39;100.00
64827;BME280;51265;53.972;12.286;2023-07-29T05:07:05;99900.84;;;17.57;100.00
64827;BME280;51265;53.972;12.286;2023-07-29T05:09:31;99900.47;;;17.75;100.00
64827;BME280;51265;53.972;12.286;2023-07-29T05:11:57;99907.03;;;18.02;100.00
64827;BME280;51265;53.972;12.286;2023-07-29T05:14:24;99900.72;;;18.24;100.00
64827;BME280;51265;53.972;12.286;2023-07-29T05:16:50;99897.94;;;18.47;100.00
64827;BME280;51265;53.972;12.286;2023-07-29T05:19:16;99890.84;;;18.50;100.00
64827;BME280;51265;53.972;12.286;2023-07-29T05:21:42;99889.34;;;18.56;100.00
64827;BME280;51265;53.972;12.286;2023-07-29T05:24:09;99885.69;;;18.52;100.00
64827;BME280;51265;53.972;12.286;2023-07-29T05:26:35;99884.59;;;18.56;100.00
64827;BME280;51265;53.972;12.286;2023-07-29T05:29:01;99883.75;;;18.56;100.00
64827;BME280;51265;53.972;12.286;2023-07-29T05:31:30;99889.00;;;18.57;100.00
64827;BME280;51265;53.972;12.286;2023-07-29T05:33:57;99887.75;;;18.55;100.00
64827;BME280;51265;53.972;12.286;2023-07-29T05:36:23;99887.81;;;18.58;100.00
64827;BME280;51265;53.972;12.286;2023-07-29T05:38:51;99883.16;;;18.66;100.00
64827;BME280;51265;53.972;12.286;2023-07-29T05:41:18;99881.69;;;18.72;100.00
64827;BME280;51265;53.972;12.286;2023-07-29T05:43:44;99889.78;;;18.77;100.00
64827;BME280;51265;53.972;12.286;2023-07-29T05:46:11;99882.75;;;18.87;100.00
64827;BME280;51265;53.972;12.286;2023-07-29T05:48:37;99882.91;;;18.98;100.00
64827;BME280;51265;53.972;12.286;2023-07-29T05:51:04;99866.31;;;19.05;100.00
64827;BME280;51265;53.972;12.286;2023-07-29T05:53:31;99869.75;;;19.21;100.00
64827;BME280;51265;53.972;12.286;2023-07-29T05:55:58;99865.22;;;19.39;100.00
64827;BME280;51265;53.972;12.286;2023-07-29T05:58:24;99855.03;;;19.51;100.00
64827;BME280;51265;53.972;12.286;2023-07-29T06:00:50;99855.38;;;19.76;100.00
64827;BME280;51265;53.972;12.286;2023-07-29T06:03:18;99848.63;;;20.10;100.00
64827;BME280;51265;53.972;12.286;2023-07-29T06:05:45;99843.25;;;20.28;100.00
64827;BME280;51265;53.972;12.286;2023-07-29T06:08:11;99832.25;;;20.09;100.00
64827;BME280;51265;53.972;12.286;2023-07-29T06:10:37;99833.53;;;20.15;100.00
64827;BME280;51265;53.972;12.286;2023-07-29T06:13:03;99826.38;;;20.21;100.00
64827;BME280;51265;53.972;12.286;2023-07-29T06:15:30;99820.84;;;20.25;100.00
64827;BME280;51265;53.972;12.286;2023-07-29T06:17:56;99820.06;;;20.28;100.00
64827;BME280;51265;53.972;12.286;2023-07-29T06:20:22;99825.75;;;20.38;100.00
64827;BME280;51265;53.972;12.286;2023-07-29T06:22:49;99826.69;;;20.50;100.00
64827;BME280;51265;53.972;12.286;2023-07-29T06:25:15;99821.97;;;20.57;100.00
64827;BME280;51265;53.972;12.286;2023-07-29T06:27:41;99820.09;;;20.72;100.00
64827;BME280;51265;53.972;12.286;2023-07-29T06:30:07;99815.03;;;20.88;100.00
64827;BME280;51265;53.972;12.286;2023-07-29T06:32:34;99817.66;;;21.22;100.00
64827;BME280;51265;53.972;12.286;2023-07-29T06:35:00;99813.13;;;21.69;100.00
64827;BME280;51265;53.972;12.286;2023-07-29T06:37:26;99789.66;;;21.99;97.72
64827;BME280;51265;53.972;12.286;2023-07-29T06:39:53;99774.09;;;22.30;93.88
64827;BME280;51265;53.972;12.286;2023-07-29T06:42:19;99768.50;;;22.37;91.67
64827;BME280;51265;53.972;12.286;2023-07-29T06:44:45;99758.88;;;22.34;91.04
64827;BME280;51265;53.972;12.286;2023-07-29T06:47:12;99741.66;;;22.32;90.02
64827;BME280;51265;53.972;12.286;2023-07-29T06:49:38;99732.03;;;22.16;90.08
64827;BME280;51265;53.972;12.286;2023-07-29T06:52:04;99723.53;;;21.83;90.96
64827;BME280;51265;53.972;12.286;2023-07-29T06:54:31;99720.25;;;21.63;91.47
64827;BME280;51265;53.972;12.286;2023-07-29T06:56:57;99741.81;;;21.52;92.88
64827;BME280;51265;53.972;12.286;2023-07-29T06:59:24;99748.25;;;21.53;94.35
64827;BME280;51265;53.972;12.286;2023-07-29T07:01:50;99748.28;;;21.63;96.03
64827;BME280;51265;53.972;12.286;2023-07-29T07:04:16;99763.56;;;21.87;96.20
64827;BME280;51265;53.972;12.286;2023-07-29T07:06:43;99758.06;;;22.12;94.96
64827;BME280;51265;53.972;12.286;2023-07-29T07:09:09;99748.44;;;22.35;91.79
64827;BME280;51265;53.972;12.286;2023-07-29T07:11:35;99742.84;;;22.38;90.52
64827;BME280;51265;53.972;12.286;2023-07-29T07:14:01;99736.03;;;22.54;90.80
64827;BME280;51265;53.972;12.286;2023-07-29T07:16:27;99725.19;;;22.52;89.29
64827;BME280;51265;53.972;12.286;2023-07-29T07:18:56;99727.22;;;22.59;88.01
64827;BME280;51265;53.972;12.286;2023-07-29T07:21:23;99730.78;;;22.81;88.27
64827;BME280;51265;53.972;12.286;2023-07-29T07:23:50;99735.16;;;23.10;87.32
64827;BME280;51265;53.972;12.286;2023-07-29T07:26:16;99720.59;;;23.44;84.40
64827;BME280;51265;53.972;12.286;2023-07-29T07:28:42;99714.50;;;23.60;82.58
64827;BME280;51265;53.972;12.286;2023-07-29T07:31:08;99704.88;;;23.61;81.54
64827;BME280;51265;53.972;12.286;2023-07-29T07:33:34;99698.44;;;23.64;80.84
64827;BME280;51265;53.972;12.286;2023-07-29T07:36:01;99690.44;;;23.66;80.48
64827;BME280;51265;53.972;12.286;2023-07-29T07:38:27;99684.47;;;23.46;80.11
64827;BME280;51265;53.972;12.286;2023-07-29T07:40:54;99703.72;;;23.48;80.26
64827;BME280;51265;53.972;12.286;2023-07-29T07:43:22;99696.84;;;23.63;80.58
64827;BME280;51265;53.972;12.286;2023-07-29T07:45:48;99702.50;;;23.49;80.78
64827;BME280;51265;53.972;12.286;2023-07-29T07:48:14;99700.13;;;23.44;80.62
64827;BME280;51265;53.972;12.286;2023-07-29T07:50:43;99709.69;;;23.57;80.85
64827;BME280;51265;53.972;12.286;2023-07-29T07:53:09;99683.97;;;23.69;80.00
64827;BME280;51265;53.972;12.286;2023-07-29T07:55:35;99695.78;;;24.05;79.56
64827;BME280;51265;53.972;12.286;2023-07-29T07:58:01;99676.13;;;24.54;77.10
64827;BME280;51265;53.972;12.286;2023-07-29T08:00:27;99669.66;;;24.95;75.73
64827;BME280;51265;53.972;12.286;2023-07-29T08:02:53;99660.38;;;24.98;74.29
64827;BME280;51265;53.972;12.286;2023-07-29T08:05:20;99657.84;;;25.07;73.70
64827;BME280;51265;53.972;12.286;2023-07-29T08:07:46;99636.06;;;25.15;72.58
64827;BME280;51265;53.972;12.286;2023-07-29T08:10:12;99661.84;;;25.44;72.98
64827;BME280;51265;53.972;12.286;2023-07-29T08:12:38;99633.13;;;25.25;72.17
64827;BME280;51265;53.972;12.286;2023-07-29T08:15:05;99641.88;;;24.97;72.46
64827;BME280;51265;53.972;12.286;2023-07-29T08:17:31;99656.34;;;24.61;73.75
64827;BME280;51265;53.972;12.286;2023-07-29T08:19:57;99665.97;;;24.15;75.12
64827;BME280;51265;53.972;12.286;2023-07-29T08:22:23;99660.09;;;23.25;76.86
64827;BME280;51265;53.972;12.286;2023-07-29T08:24:50;99685.47;;;23.04;79.01
64827;BME280;51265;53.972;12.286;2023-07-29T08:27:16;99717.97;;;22.94;81.25
64827;BME280;51265;53.972;12.286;2023-07-29T08:29:42;99722.78;;;23.01;82.33
64827;BME280;51265;53.972;12.286;2023-07-29T08:32:09;99730.41;;;23.04;83.23
64827;BME280;51265;53.972;12.286;2023-07-29T08:34:35;99728.38;;;23.01;83.25
64827;BME280;51265;53.972;12.286;2023-07-29T08:37:01;99727.56;;;22.90;82.98
64827;BME280;51265;53.972;12.286;2023-07-29T08:39:27;99736.81;;;23.08;84.60
64827;BME280;51265;53.972;12.286;2023-07-29T08:41:59;99741.03;;;23.52;83.74
64827;BME280;51265;53.972;12.286;2023-07-29T08:44:30;99726.97;;;23.59;82.71
64827;BME280;51265;53.972;12.286;2023-07-29T08:47:01;99723.41;;;23.48;82.01
64827;BME280;51265;53.972;12.286;2023-07-29T08:49:37;99722.69;;;23.22;82.27
64827;BME280;51265;53.972;12.286;2023-07-29T08:52:04;99723.47;;;23.33;81.93
64827;BME280;51265;53.972;12.286;2023-07-29T08:54:31;99726.66;;;23.32;81.33
64827;BME280;51265;53.972;12.286;2023-07-29T08:56:58;99728.25;;;23.36;81.56
64827;BME280;51265;53.972;12.286;2023-07-29T08:59:26;99728.91;;;23.76;80.78
64827;BME280;51265;53.972;12.286;2023-07-29T09:01:53;99728.78;;;23.98;80.74
64827;BME280;51265;53.972;12.286;2023-07-29T09:04:22;99715.63;;;24.36;78.80
64827;BME280;51265;53.972;12.286;2023-07-29T09:06:50;99703.44;;;24.57;78.50
64827;BME280;51265;53.972;12.286;2023-07-29T09:09:17;99659.00;;;23.78;77.04
64827;BME280;51265;53.972;12.286;2023-07-29T09:11:43;99699.69;;;24.22;77.90
64827;BME280;51265;53.972;12.286;2023-07-29T09:14:10;99672.75;;;24.25;75.95
64827;BME280;51265;53.972;12.286;2023-07-29T09:16:37;99664.22;;;24.32;75.86
64827;BME280;51265;53.972;12.286;2023-07-29T09:19:04;99655.06;;;23.69;75.75
64827;BME280;51265;53.972;12.286;2023-07-29T09:21:31;99664.16;;;23.17;77.14
64827;BME280;51265;53.972;12.286;2023-07-29T09:24:03;99688.19;;;23.22;78.75
64827;BME280;51265;53.972;12.286;2023-07-29T09:26:29;99688.94;;;23.36;79.00
64827;BME280;51265;53.972;12.286;2023-07-29T09:28:58;99697.75;;;23.46;79.09
64827;BME280;51265;53.972;12.286;2023-07-29T09:31:27;99702.88;;;23.65;78.47
64827;BME280;51265;53.972;12.286;2023-07-29T09:33:56;99707.16;;;23.88;78.33
64827;BME280;51265;53.972;12.286;2023-07-29T09:36:24;99676.63;;;23.90;77.22
64827;BME280;51265;53.972;12.286;2023-07-29T09:38:54;99675.16;;;23.71;76.63
64827;BME280;51265;53.972;12.286;2023-07-29T09:41:25;99681.41;;;23.93;76.89
64827;BME280;51265;53.972;12.286;2023-07-29T09:44:04;99680.44;;;24.17;76.28
64827;BME280;51265;53.972;12.286;2023-07-29T09:46:33;99664.34;;;24.21;75.01
64827;BME280;51265;53.972;12.286;2023-07-29T09:49:03;99670.13;;;24.48;74.31
64827;BME280;51265;53.972;12.286;2023-07-29T09:51:30;99659.03;;;24.75;73.71
64827;BME280;51265;53.972;12.286;2023-07-29T09:53:56;99664.25;;;25.11;73.72
64827;BME280;51265;53.972;12.286;2023-07-29T09:56:26;99647.00;;;25.05;72.86
64827;BME280;51265;53.972;12.286;2023-07-29T09:58:56;99635.19;;;25.21;71.74
64827;BME280;51265;53.972;12.286;2023-07-29T10:01:23;99641.16;;;25.54;71.60
64827;BME280;51265;53.972;12.286;2023-07-29T10:03:50;99637.13;;;26.09;69.72
64827;BME280;51265;53.972;12.286;2023-07-29T10:06:17;99602.41;;;26.12;68.33
64827;BME280;51265;53.972;12.286;2023-07-29T10:08:44;99596.16;;;26.01;67.38
64827;BME280;51265;53.972;12.286;2023-07-29T10:11:11;99574.69;;;25.29;67.80
64827;BME280;51265;53.972;12.286;2023-07-29T10:13:38;99571.94;;;24.92;68.18
64827;BME280;51265;53.972;12.286;2023-07-29T10:16:04;99585.59;;;24.93;68.90
64827;BME280;51265;53.972;12.286;2023-07-29T10:18:32;99571.75;;;25.06;67.94
64827;BME280;51265;53.972;12.286;2023-07-29T10:21:00;99583.06;;;25.02;69.21
64827;BME280;51265;53.972;12.286;2023-07-29T10:23:28;99575.13;;;25.24;68.60
64827;BME280;51265;53.972;12.286;2023-07-29T10:26:05;99569.47;;;25.28;67.82
64827;BME280;51265;53.972;12.286;2023-07-29T10:28:32;99599.91;;;25.67;68.57
64827;BME280;51265;53.972;12.286;2023-07-29T10:30:59;99575.63;;;25.73;66.88
64827;BME280;51265;53.972;12.286;2023-07-29T10:33:26;99573.66;;;25.97;66.27
64827;BME280;51265;53.972;12.286;2023-07-29T10:35:53;99570.38;;;25.99;66.53
64827;BME280;51265;53.972;12.286;2023-07-29T10:38:23;99553.00;;;25.50;66.40
64827;BME280;51265;53.972;12.286;2023-07-29T10:40:52;99549.09;;;25.17;66.76
64827;BME280;51265;53.972;12.286;2023-07-29T10:43:38;99541.59;;;24.72;67.51
64827;BME280;51265;53.972;12.286;2023-07-29T10:46:19;99560.97;;;24.29;69.41
64827;BME280;51265;53.972;12.286;2023-07-29T10:48:56;99584.69;;;24.28;69.77
64827;BME280;51265;53.972;12.286;2023-07-29T10:51:30;99589.88;;;24.33;70.10
64827;BME280;51265;53.972;12.286;2023-07-29T10:54:02;99599.44;;;24.43;70.42
64827;BME280;51265;53.972;12.286;2023-07-29T10:56:30;99586.69;;;24.69;69.94
64827;BME280;51265;53.972;12.286;2023-07-29T11:01:40;99580.84;;;24.87;69.47
64827;BME280;51265;53.972;12.286;2023-07-29T11:04:23;99595.28;;;24.92;70.21
64827;BME280;51265;53.972;12.286;2023-07-29T11:09:45;99586.56;;;25.95;68.17
64827;BME280;51265;53.972;12.286;2023-07-29T11:17:43;99516.34;;;26.44;65.53
64827;BME280;51265;53.972;12.286;2023-07-29T11:20:10;99525.59;;;26.68;65.64
64827;BME280;51265;53.972;12.286;2023-07-29T11:22:38;99498.06;;;26.72;64.37
64827;BME280;51265;53.972;12.286;2023-07-29T11:25:05;99515.91;;;27.05;64.57
64827;BME280;51265;53.972;12.286;2023-07-29T11:27:38;99497.22;;;26.91;64.25
64827;BME280;51265;53.972;12.286;2023-07-29T11:30:07;99499.25;;;26.91;63.96
64827;BME280;51265;53.972;12.286;2023-07-29T11:32:35;99488.66;;;26.95;63.45
64827;BME280;51265;53.972;12.286;2023-07-29T11:35:05;99469.59;;;26.43;62.81
64827;BME280;51265;53.972;12.286;2023-07-29T11:37:34;99499.28;;;26.71;63.54
64827;BME280;51265;53.972;12.286;2023-07-29T11:40:00;99528.13;;;27.18;63.71
64827;BME280;51265;53.972;12.286;2023-07-29T11:42:27;99501.03;;;27.70;61.62
64827;BME280;51265;53.972;12.286;2023-07-29T11:44:57;99496.38;;;27.63;61.95
64827;BME280;51265;53.972;12.286;2023-07-29T11:47:24;99497.78;;;27.88;61.18
64827;BME280;51265;53.972;12.286;2023-07-29T11:49:50;99495.13;;;27.97;61.22
64827;BME280;51265;53.972;12.286;2023-07-29T11:52:18;99424.28;;;27.55;58.85
64827;BME280;51265;53.972;12.286;2023-07-29T11:54:47;99476.75;;;27.89;60.10
64827;BME280;51265;53.972;12.286;2023-07-29T11:57:13;99430.81;;;27.19;59.24
64827;BME280;51265;53.972;12.286;2023-07-29T11:59:41;99470.22;;;26.90;61.17
64827;BME280;51265;53.972;12.286;2023-07-29T12:02:11;99500.53;;;27.06;61.66
64827;BME280;51265;53.972;12.286;2023-07-29T12:04:38;99472.22;;;27.10;59.45
64827;BME280;51265;53.972;12.286;2023-07-29T12:07:05;99477.44;;;27.27;60.00
64827;BME280;51265;53.972;12.286;2023-07-29T12:09:33;99486.41;;;27.42;60.09
64827;BME280;51265;53.972;12.286;2023-07-29T12:11:59;99472.84;;;27.50;59.06
64827;BME280;51265;53.972;12.286;2023-07-29T12:14:28;99482.00;;;28.48;57.73
64827;BME280;51265;53.972;12.286;2023-07-29T12:16:54;99482.34;;;29.31;56.48
64827;BME280;51265;53.972;12.286;2023-07-29T12:19:20;99468.59;;;29.29;55.79
64827;BME280;51265;53.972;12.286;2023-07-29T12:21:48;99416.16;;;28.44;55.87
64827;BME280;51265;53.972;12.286;2023-07-29T12:24:15;99383.72;;;26.96;56.84
64827;BME280;51265;53.972;12.286;2023-07-29T12:26:41;99422.81;;;25.58;60.05
64827;BME280;51265;53.972;12.286;2023-07-29T12:29:12;99469.94;;;24.77;62.85
64827;BME280;51265;53.972;12.286;2023-07-29T12:31:39;99518.44;;;23.78;66.22
64827;BME280;51265;53.972;12.286;2023-07-29T12:34:05;99578.31;;;20.80;71.99
64827;BME280;51265;53.972;12.286;2023-07-29T12:36:45;99664.97;;;19.36;80.11
64827;BME280;51265;53.972;12.286;2023-07-29T12:39:25;99733.28;;;18.13;92.53
64827;BME280;51265;53.972;12.286;2023-07-29T12:41:54;99756.00;;;17.54;100.00
64827;BME280;51265;53.972;12.286;2023-07-29T12:44:22;99771.78;;;17.11;100.00
64827;BME280;51265;53.972;12.286;2023-07-29T12:46:49;99773.97;;;17.02;100.00
64827;BME280;51265;53.972;12.286;2023-07-29T12:49:15;99773.03;;;16.78;100.00
64827;BME280;51265;53.972;12.286;2023-07-29T12:51:41;99782.16;;;16.95;100.00
64827;BME280;51265;53.972;12.286;2023-07-29T12:54:07;99789.22;;;17.08;100.00
64827;BME280;51265;53.972;12.286;2023-07-29T12:56:33;99778.56;;;17.29;100.00
64827;BME280;51265;53.972;12.286;2023-07-29T12:59:00;99789.78;;;17.52;100.00